Time;durP1;ratioP1;P1;durP2;ratioP2;P2;SDS_P1;SDS_P2;PMS_P1;PMS_P2;Temp;Humidity;BMP_temperature;BMP_pressure;BME280_temperature;BME280_humidity;BME280_pressure;Samples;Min_cycle;Max_cycle;Signal;HPM_P1;HPM_P2
2022/04/26 05:20:06;;;;;;;2.78;1.20;;;19.00;85.60;;;;;;6300262;22;20034;-70
2022/04/26 05:24:53;;;;;;;1.30;0.80;;;19.00;85.70;;;;;;6277008;22;20026;-69
2022/04/26 05:25:20;;;;;;;3.10;1.08;;;19.10;85.90;;;;;;6259771;22;20030;-69
2022/04/26 05:27:47;;;;;;;2.70;1.20;;;19.00;86.30;;;;;;6304105;22;19992;-69
2022/04/26 05:30:14;;;;;;;4.20;1.40;;;19.10;86.20;;;;;;6277183;22;20003;-69
2022/04/26 05:32:41;;;;;;;3.22;1.38;;;19.00;86.00;;;;;;6277376;22;20014;-68
2022/04/26 05:35:10;;;;;;;3.58;1.27;;;19.00;85.90;;;;;;6304656;22;20092;-66
2022/04/26 05:37:38;;;;;;;2.08;1.38;;;19.10;86.20;;;;;;6304756;22;20061;-67
2022/04/26 05:40:05;;;;;;;3.88;1.40;;;19.00;86.10;;;;;;6277763;22;19999;-66
2022/04/26 05:42:35;;;;;;;2.55;1.52;;;19.00;86.00;;;;;;6305207;22;19995;-66
2022/04/26 05:45:03;;;;;;;4.63;1.42;;;19.10;86.10;;;;;;6305032;22;20015;-67
2022/04/26 05:47:30;;;;;;;2.10;1.20;;;19.10;85.90;;;;;;6276993;22;19999;-67
2022/04/26 05:49:57;;;;;;;5.95;1.30;;;19.00;85.70;;;;;;6302636;22;20003;-66
2022/04/26 05:52:24;;;;;;;3.03;1.25;;;19.00;85.70;;;;;;6304772;22;20007;-67
2022/04/26 05:54:54;;;;;;;3.42;1.38;;;19.10;85.80;;;;;;6304555;22;20018;-67
2022/04/26 05:57:21;;;;;;;;;;;19.10;85.90;;;;;;6305093;22;20504;-67
2022/04/26 05:59:48;;;;;;;4.35;1.50;;;19.00;86.00;;;;;;6304804;22;19978;-67
2022/04/26 06:02:15;;;;;;;3.67;1.40;;;19.10;86.20;;;;;;6304754;22;20007;-67
2022/04/26 06:04:42;;;;;;;3.67;1.55;;;19.00;86.50;;;;;;6304877;22;20023;-66
2022/04/26 06:07:10;;;;;;;3.65;1.42;;;19.10;86.30;;;;;;6304301;22;20006;-68
2022/04/26 06:09:37;;;;;;;3.05;1.35;;;19.10;86.30;;;;;;6303848;22;20007;-68
2022/04/26 06:12:08;;;;;;;4.22;1.40;;;19.10;86.10;;;;;;6304864;22;20000;-67
2022/04/26 06:14:35;;;;;;;4.32;1.40;;;19.10;86.00;;;;;;6278124;22;20011;-67
2022/04/26 06:17:02;;;;;;;5.32;1.45;;;19.10;86.10;;;;;;6277583;22;20039;-67
2022/04/26 06:19:29;;;;;;;6.35;1.63;;;19.10;86.10;;;;;;6290541;22;20081;-67
2022/04/26 06:21:56;;;;;;;4.03;1.35;;;19.00;86.40;;;;;;6273436;22;20214;-68
2022/04/26 06:24:25;;;;;;;12.00;2.08;;;19.00;86.50;;;;;;6273116;22;20083;-68
2022/04/26 06:26:52;;;;;;;9.45;1.92;;;19.10;86.50;;;;;;6273397;22;20015;-67
2022/04/26 06:29:20;;;;;;;2.97;1.38;;;19.00;86.60;;;;;;6246459;22;19996;-68
2022/04/26 06:31:47;;;;;;;4.97;1.52;;;19.00;86.50;;;;;;6221246;22;20039;-68
2022/04/26 06:34:14;;;;;;;5.95;1.55;;;19.00;86.60;;;;;;6220919;22;20389;-68
2022/04/26 06:36:41;;;;;;;2.65;1.20;;;19.00;86.40;;;;;;6273898;22;20000;-68
2022/04/26 06:39:08;;;;;;;4.47;1.33;;;19.00;86.50;;;;;;6273254;22;20010;-68
2022/04/26 06:41:36;;;;;;;4.45;1.40;;;19.00;86.50;;;;;;6273872;22;19995;-69
2022/04/26 06:44:04;;;;;;;7.03;1.83;;;19.00;86.50;;;;;;6273028;22;20069;-68
2022/04/26 06:46:31;;;;;;;6.38;1.50;;;19.00;86.70;;;;;;6246319;22;20441;-68
2022/04/26 06:49:00;;;;;;;5.32;1.40;;;19.00;86.60;;;;;;6273504;22;20007;-68
2022/04/26 06:51:29;;;;;;;4.47;1.55;;;19.00;86.80;;;;;;6274108;22;20469;-68
2022/04/26 06:53:56;;;;;;;3.90;1.30;;;19.00;86.20;;;;;;6222660;22;20012;-67
2022/04/26 06:56:23;;;;;;;2.67;1.30;;;19.00;86.40;;;;;;6273274;22;20074;-68
2022/04/26 06:58:51;;;;;;;2.70;1.30;;;19.00;86.40;;;;;;6273786;22;20057;-68
2022/04/26 07:01:18;;;;;;;4.82;1.60;;;19.00;86.40;;;;;;6246402;22;20046;-67
2022/04/26 07:03:45;;;;;;;7.75;1.80;;;19.00;86.50;;;;;;6273258;22;20022;-68
2022/04/26 07:06:12;;;;;;;3.90;1.30;;;19.00;86.60;;;;;;6273328;22;19996;-68
2022/04/26 07:08:39;;;;;;;5.57;1.50;;;19.00;86.40;;;;;;6246816;22;20011;-68
2022/04/26 07:11:06;;;;;;;6.38;1.38;;;19.00;86.40;;;;;;6273572;22;20008;-69
2022/04/26 07:13:33;;;;;;;8.45;1.65;;;19.00;86.40;;;;;;6273195;22;20012;-69
2022/04/26 07:16:01;;;;;;;3.08;1.30;;;19.00;86.30;;;;;;6273710;22;20007;-68
2022/04/26 07:18:28;;;;;;;3.38;1.35;;;19.00;86.00;;;;;;6246592;22;20000;-69
2022/04/26 07:20:56;;;;;;;4.35;1.50;;;19.00;86.20;;;;;;6304538;22;20362;-69
2022/04/26 07:23:23;;;;;;;3.35;1.45;;;19.00;86.40;;;;;;6278316;22;20018;-69
2022/04/26 07:25:52;;;;;;;9.10;2.30;;;19.00;86.40;;;;;;6305675;22;20004;-68
2022/04/26 07:28:19;;;;;;;4.10;1.52;;;19.00;86.40;;;;;;6306062;22;19999;-69
2022/04/26 07:30:46;;;;;;;2.72;1.30;;;19.00;86.40;;;;;;6306153;22;20007;-69
2022/04/26 07:35:58;;;;;;;5.22;1.60;;;19.00;86.60;;;;;;6306059;22;20045;-69
2022/04/26 07:38:26;;;;;;;4.85;1.88;;;19.00;86.80;;;;;;6305316;22;20010;-70
2022/04/26 07:40:53;;;;;;;6.38;1.65;;;19.00;86.70;;;;;;6305705;22;20032;-70
2022/04/26 07:43:21;;;;;;;5.45;1.73;;;19.00;86.90;;;;;;6304021;22;20385;-70
2022/04/26 07:45:48;;;;;;;4.85;2.08;;;19.00;87.00;;;;;;6278096;22;20015;-70
2022/04/26 07:48:17;;;;;;;4.47;1.70;;;19.00;87.10;;;;;;6278454;22;20342;-70
2022/04/26 07:50:47;;;;;;;5.50;1.80;;;19.00;86.90;;;;;;6279089;22;20003;-70
2022/04/26 07:53:14;;;;;;;5.30;1.50;;;19.00;87.00;;;;;;6279102;22;20054;-70
2022/04/26 07:55:42;;;;;;;3.53;1.70;;;19.00;87.00;;;;;;6278280;22;20015;-70
2022/04/26 07:58:10;;;;;;;4.78;1.77;;;19.00;87.10;;;;;;6278308;22;19995;-70
2022/04/26 08:00:37;;;;;;;5.55;1.98;;;19.00;87.20;;;;;;6305821;22;20057;-70
2022/04/26 08:03:05;;;;;;;7.55;2.03;;;19.00;87.40;;;;;;6305016;22;20381;-71
2022/04/26 08:05:32;;;;;;;6.55;1.95;;;19.00;87.50;;;;;;6278254;22;20074;-70
2022/04/26 08:07:59;;;;;;;6.72;2.28;;;19.00;87.50;;;;;;6305248;22;20006;-71
2022/04/26 08:10:26;;;;;;;5.85;2.15;;;18.90;87.60;;;;;;6305103;22;20034;-70
2022/04/26 08:12:53;;;;;;;4.78;1.75;;;19.00;87.80;;;;;;6277329;22;20500;-70
2022/04/26 08:15:21;;;;;;;8.25;1.73;;;19.00;88.00;;;;;;6304761;22;20371;-70
2022/04/26 08:17:49;;;;;;;6.97;1.65;;;19.00;89.50;;;;;;6305385;22;19999;-68
2022/04/26 08:20:16;;;;;;;6.78;1.90;;;18.90;90.00;;;;;;6252004;22;20061;-67
2022/04/26 08:22:43;;;;;;;5.45;1.63;;;18.90;90.30;;;;;;6278971;22;20312;-67
2022/04/26 08:27:56;;;;;;;7.10;1.65;;;18.80;90.90;;;;;;6305155;22;20078;-65
2022/04/26 08:30:23;;;;;;;4.38;1.50;;;18.80;91.10;;;;;;6274502;22;20003;-69
2022/04/26 08:32:51;;;;;;;4.85;1.75;;;18.70;91.20;;;;;;6303186;22;20010;-69
2022/04/26 08:35:21;;;;;;;4.47;1.42;;;18.70;91.00;;;;;;6304547;22;20030;-68
2022/04/26 08:37:49;;;;;;;7.80;1.58;;;18.70;90.70;;;;;;6253173;22;20000;-69
2022/04/26 08:40:16;;;;;;;3.97;1.55;;;18.70;90.60;;;;;;6304972;22;19999;-68
2022/04/26 08:42:45;;;;;;;4.50;1.10;;;18.70;90.50;;;;;;6278310;22;20003;-68
2022/04/26 08:45:14;;;;;;;5.28;1.45;;;18.70;90.30;;;;;;6305403;22;20035;-68
2022/04/26 08:53:15;;;;;;;4.20;1.70;;;18.70;90.30;;;;;;6281844;22;20077;-66
2022/04/26 08:55:53;;;;;;;9.57;1.80;;;18.70;90.30;;;;;;6279299;22;20010;-66
2022/04/26 08:58:21;;;;;;;4.18;1.60;;;18.70;90.40;;;;;;6278859;22;20373;-68
2022/04/26 09:01:15;;;;;;;3.47;1.65;;;18.70;90.40;;;;;;6305090;22;20327;-66
2022/04/26 09:03:59;;;;;;;6.40;1.55;;;18.70;90.20;;;;;;6304701;22;20008;-68
2022/04/26 09:06:45;;;;;;;3.33;1.73;;;18.70;90.30;;;;;;6305239;22;19999;-70
2022/04/26 09:09:24;;;;;;;4.47;1.48;;;18.70;90.30;;;;;;6305596;22;20505;-68
2022/04/26 09:11:52;;;;;;;4.07;1.40;;;18.60;90.20;;;;;;6304857;22;20003;-67
2022/04/26 09:14:37;;;;;;;4.85;1.52;;;18.60;90.30;;;;;;6277862;22;20338;-67
2022/04/26 09:17:08;;;;;;;2.83;1.42;;;18.60;90.40;;;;;;6304975;22;19999;-67
2022/04/26 09:19:55;;;;;;;5.88;1.30;;;18.60;90.30;;;;;;6304194;22;20043;-67
2022/04/26 09:22:26;;;;;;;1.67;1.00;;;18.70;90.40;;;;;;6304344;22;20022;-67
2022/04/26 09:25:07;;;;;;;3.50;1.20;;;18.70;90.20;;;;;;6304651;22;20098;-67
2022/04/26 09:27:38;;;;;;;5.13;1.33;;;18.70;89.80;;;;;;6303794;22;20288;-65
2022/04/26 09:30:09;;;;;;;5.68;1.20;;;18.70;89.70;;;;;;6276801;22;20003;-65
2022/04/26 09:32:47;;;;;;;1.30;0.90;;;18.70;89.70;;;;;;6277517;22;20326;-67
2022/04/26 09:35:28;;;;;;;3.88;1.20;;;18.70;89.80;;;;;;6304781;22;20326;-66
2022/04/26 09:37:55;;;;;;;3.80;1.13;;;18.70;89.90;;;;;;6253403;22;20074;-65
2022/04/26 09:40:26;;;;;;;2.08;1.00;;;18.70;90.10;;;;;;6277335;22;20050;-65
2022/04/26 09:42:54;;;;;;;1.77;0.88;;;18.60;90.10;;;;;;6304463;22;20078;-65
2022/04/26 09:45:21;;;;;;;2.75;1.13;;;18.60;90.20;;;;;;6304640;22;20005;-67
2022/04/26 09:47:50;;;;;;;3.58;1.15;;;18.60;90.20;;;;;;6277044;22;20006;-66
2022/04/26 09:50:17;;;;;;;5.22;1.10;;;18.60;90.50;;;;;;6304065;22;20105;-66
2022/04/26 09:52:45;;;;;;;3.58;0.85;;;18.50;90.50;;;;;;6304625;22;20026;-66
2022/04/26 09:55:13;;;;;;;3.10;1.40;;;18.50;90.50;;;;;;6276594;22;20338;-67
2022/04/26 09:57:42;;;;;;;3.30;1.20;;;18.50;90.30;;;;;;6304066;22;20007;-66
2022/04/26 10:00:11;;;;;;;1.52;1.00;;;18.40;90.60;;;;;;6303843;22;20078;-67
2022/04/26 10:02:44;;;;;;;2.95;1.00;;;18.40;90.70;;;;;;6303500;22;20057;-64
2022/04/26 10:05:11;;;;;;;2.40;1.08;;;18.40;91.00;;;;;;6277300;22;20083;-65
2022/04/26 10:07:41;;;;;;;2.78;0.93;;;18.40;91.20;;;;;;6277210;22;20426;-64
2022/04/26 10:10:09;;;;;;;1.25;0.93;;;18.30;91.60;;;;;;6278039;22;20054;-67
2022/04/26 10:12:36;;;;;;;3.53;1.17;;;18.30;91.70;;;;;;6303143;22;20018;-66
2022/04/26 10:15:04;;;;;;;4.25;1.20;;;18.30;91.80;;;;;;6277525;22;20334;-66
2022/04/26 10:17:32;;;;;;;1.48;1.08;;;18.30;91.80;;;;;;6303406;22;20026;-65
2022/04/26 10:20:03;;;;;;;2.83;1.20;;;18.40;91.80;;;;;;6276575;22;20033;-67
2022/04/26 10:22:54;;;;;;;3.67;1.30;;;18.40;91.90;;;;;;6304026;22;20010;-66
2022/04/26 10:25:23;;;;;;;3.20;1.13;;;18.40;92.00;;;;;;6304150;22;20003;-66
2022/04/26 10:28:17;;;;;;;4.32;1.60;;;18.40;92.10;;;;;;6277368;22;20476;-66
2022/04/26 10:30:51;;;;;;;3.88;1.23;;;18.30;92.30;;;;;;6304237;22;19999;-64
2022/04/26 10:33:38;;;;;;;2.67;1.27;;;18.30;92.50;;;;;;6303131;22;20090;-65
2022/04/26 10:36:21;;;;;;;3.33;1.30;;;18.30;92.50;;;;;;6277405;22;20049;-68
2022/04/26 10:39:15;;;;;;;2.75;1.70;;;18.30;92.60;;;;;;6304770;22;20017;-72
2022/04/26 10:41:46;;;;;;;3.53;1.70;;;18.30;92.50;;;;;;6294443;22;20014;-68
2022/04/26 10:44:16;;;;;;;2.60;1.30;;;18.30;92.60;;;;;;6277077;22;20004;-68
2022/04/26 10:47:09;;;;;;;;;;;18.30;92.70;;;;;;6303232;22;20031;-67
2022/04/26 10:49:39;;;;;;;3.20;1.15;;;18.40;92.70;;;;;;6246323;22;19968;-67
2022/04/26 10:52:19;;;;;;;1.85;1.20;;;18.30;92.80;;;;;;6301248;22;20007;-68
2022/04/26 10:54:51;;;;;;;2.73;1.33;;;18.30;92.90;;;;;;6304213;22;20015;-66
2022/04/26 10:57:20;;;;;;;4.07;1.70;;;18.30;92.80;;;;;;6302778;22;20266;-66
2022/04/26 10:59:48;;;;;;;1.83;1.10;;;18.30;92.90;;;;;;6276105;22;20011;-65
2022/04/26 11:02:17;;;;;;;3.25;1.13;;;18.30;92.80;;;;;;6276598;22;20021;-65
2022/04/26 11:04:44;;;;;;;10.07;1.77;;;18.30;93.10;;;;;;6275609;22;20011;-66
2022/04/26 11:07:15;;;;;;;5.45;1.80;;;18.30;93.40;;;;;;6276195;22;20003;-66
2022/04/26 11:09:49;;;;;;;3.05;1.40;;;18.20;93.40;;;;;;6304446;22;20326;-65
2022/04/26 11:12:20;;;;;;;5.65;1.27;;;18.20;93.50;;;;;;6304366;22;20086;-66
2022/04/26 11:14:48;;;;;;;9.40;2.03;;;18.20;93.60;;;;;;6304167;22;20441;-66
2022/04/26 11:17:19;;;;;;;3.90;1.52;;;18.20;93.80;;;;;;6304119;22;20000;-66
2022/04/26 11:19:56;;;;;;;2.58;1.30;;;18.20;93.90;;;;;;6304033;22;20054;-66
2022/04/26 11:22:24;;;;;;;3.92;1.75;;;18.20;94.10;;;;;;6302237;22;20007;-64
2022/04/26 11:30:24;;;;;;;6.60;1.70;;;18.20;94.20;;;;;;6278839;22;20341;-66
2022/04/26 11:32:51;;;;;;;8.50;2.00;;;18.10;94.40;;;;;;6302469;22;20039;-67
2022/04/26 11:35:22;;;;;;;4.38;1.90;;;18.10;94.40;;;;;;6275208;22;20003;-66
2022/04/26 11:37:52;;;;;;;5.13;1.65;;;18.10;94.40;;;;;;6303536;22;20319;-65
2022/04/26 11:40:26;;;;;;;4.57;1.70;;;18.10;94.60;;;;;;6303434;22;20330;-66
2022/04/26 11:42:57;;;;;;;3.33;1.50;;;18.10;94.50;;;;;;6274788;22;20011;-66
2022/04/26 11:45:28;;;;;;;5.95;1.50;;;18.00;94.40;;;;;;6276039;22;20098;-65
2022/04/26 11:47:56;;;;;;;6.10;1.40;;;18.00;94.40;;;;;;6302941;22;20013;-64
2022/04/26 11:50:29;;;;;;;6.80;1.73;;;18.00;94.60;;;;;;6304106;22;20098;-64
2022/04/26 11:53:12;;;;;;;3.80;1.50;;;18.00;94.60;;;;;;6302886;22;20074;-63
2022/04/26 11:55:56;;;;;;;2.30;1.40;;;18.00;94.50;;;;;;6303590;22;20488;-63
2022/04/26 11:58:43;;;;;;;5.22;1.52;;;18.00;94.80;;;;;;6252512;22;20398;-63
2022/04/26 12:01:16;;;;;;;5.47;1.50;;;18.00;94.90;;;;;;6302021;22;20330;-63
2022/04/26 12:03:49;;;;;;;5.07;1.60;;;18.00;94.90;;;;;;6303239;22;20435;-63
2022/04/26 12:06:20;;;;;;;4.05;1.73;;;18.00;94.90;;;;;;6304182;22;20000;-63
2022/04/26 12:08:55;;;;;;;6.22;2.10;;;18.00;94.90;;;;;;6280031;22;20315;-63
2022/04/26 12:11:30;;;;;;;4.60;2.10;;;18.10;94.90;;;;;;6280129;22;20034;-63
2022/04/26 12:14:07;;;;;;;4.88;1.80;;;18.10;94.80;;;;;;6279381;22;20019;-64
2022/04/26 12:16:57;;;;;;;5.45;1.67;;;18.00;94.70;;;;;;6275724;22;20002;-63
2022/04/26 12:19:37;;;;;;;6.15;2.10;;;18.10;94.70;;;;;;6304949;22;20021;-63
2022/04/26 12:22:04;;;;;;;4.60;1.63;;;18.10;94.80;;;;;;6276768;22;20003;-65
2022/04/26 12:24:33;;;;;;;2.90;1.48;;;18.10;94.80;;;;;;6304693;22;20011;-64
2022/04/26 12:27:01;;;;;;;6.53;2.00;;;18.10;94.80;;;;;;6277852;22;19999;-65
2022/04/26 12:29:38;;;;;;;6.57;1.85;;;18.10;94.70;;;;;;6275568;22;20342;-63
2022/04/26 12:32:09;;;;;;;3.75;1.92;;;18.10;94.60;;;;;;6279876;22;20413;-64
2022/04/26 12:34:39;;;;;;;7.65;1.80;;;18.10;94.60;;;;;;6276943;22;20065;-63
2022/04/26 12:37:20;;;;;;;7.60;1.70;;;18.10;94.60;;;;;;6252359;22;20003;-64
2022/04/26 12:39:49;;;;;;;5.32;1.63;;;18.10;94.50;;;;;;6304644;22;20007;-65
2022/04/26 12:42:18;;;;;;;5.35;1.60;;;18.10;94.50;;;;;;6278734;22;20014;-64
2022/04/26 12:44:52;;;;;;;5.00;1.50;;;18.10;94.50;;;;;;6278069;22;20322;-64
2022/04/26 12:53:04;;;;;;;5.95;1.73;;;18.00;94.70;;;;;;6304552;22;20337;-65
2022/04/26 12:55:42;;;;;;;3.30;1.55;;;18.00;94.80;;;;;;6276930;22;20023;-65
2022/04/26 12:58:13;;;;;;;5.95;1.60;;;18.10;94.80;;;;;;6302483;22;20033;-66
2022/04/26 13:00:41;;;;;;;5.20;1.52;;;18.10;94.80;;;;;;6302748;22;20338;-65
2022/04/26 13:03:09;;;;;;;7.25;1.60;;;18.10;94.80;;;;;;6301130;22;20030;-65
2022/04/26 13:05:54;;;;;;;3.10;1.70;;;18.00;94.80;;;;;;6277377;22;20561;-65
2022/04/26 13:08:21;;;;;;;3.72;1.60;;;18.10;94.90;;;;;;6276702;22;20438;-65
2022/04/26 13:10:49;;;;;;;3.47;1.52;;;18.00;94.90;;;;;;6304776;22;20331;-65
2022/04/26 13:13:16;;;;;;;4.35;1.40;;;18.00;94.90;;;;;;6276058;22;20034;-65
2022/04/26 13:15:44;;;;;;;1.88;0.98;;;18.00;94.90;;;;;;6277517;22;20469;-64
2022/04/26 13:18:14;;;;;;;7.15;1.20;;;18.00;94.90;;;;;;6304303;22;20053;-66
2022/04/26 13:20:41;;;;;;;2.80;1.53;;;18.10;94.80;;;;;;6304938;22;20026;-65
2022/04/26 13:23:08;;;;;;;4.55;1.40;;;18.10;94.80;;;;;;6303301;22;20022;-65
2022/04/26 13:25:35;;;;;;;4.32;1.45;;;18.10;94.70;;;;;;6302069;22;20426;-66
2022/04/26 13:28:06;;;;;;;4.40;1.63;;;18.10;94.70;;;;;;6303743;22;20004;-66
2022/04/26 13:30:33;;;;;;;3.15;1.40;;;18.10;94.80;;;;;;6303672;22;20079;-66
2022/04/26 13:33:00;;;;;;;6.22;1.40;;;18.00;94.80;;;;;;6278306;22;19999;-66
2022/04/26 13:35:28;;;;;;;2.60;1.30;;;18.00;94.90;;;;;;6305206;22;19999;-66
2022/04/26 13:37:57;;;;;;;5.10;1.30;;;18.10;94.90;;;;;;6304561;22;20019;-66
2022/04/26 13:40:24;;;;;;;2.35;1.20;;;18.10;94.90;;;;;;6304319;22;20003;-66
2022/04/26 13:42:52;;;;;;;4.32;1.70;;;18.10;94.90;;;;;;6304514;22;20095;-66
2022/04/26 13:45:20;;;;;;;2.50;1.30;;;18.10;94.90;;;;;;6304604;22;20003;-66
2022/04/26 13:47:47;;;;;;;1.92;1.20;;;18.00;94.90;;;;;;6305002;22;20428;-66
2022/04/26 13:50:14;;;;;;;2.40;1.20;;;18.00;94.90;;;;;;6304733;22;20003;-66
2022/04/26 13:52:44;;;;;;;4.22;1.52;;;18.00;94.90;;;;;;6304343;22;20001;-66
2022/04/26 13:55:15;;;;;;;3.37;1.50;;;18.00;94.90;;;;;;6304004;22;20011;-66
2022/04/26 13:57:43;;;;;;;3.30;1.60;;;18.00;94.90;;;;;;6277281;22;20003;-66
2022/04/26 14:00:12;;;;;;;5.03;1.83;;;18.00;95.00;;;;;;6303494;22;20010;-66
2022/04/26 14:02:45;;;;;;;3.75;1.60;;;18.00;94.90;;;;;;6276878;22;19999;-67
2022/04/26 14:05:13;;;;;;;4.82;1.73;;;18.00;94.90;;;;;;6278524;22;20011;-66
2022/04/26 14:07:40;;;;;;;4.18;1.80;;;17.90;94.90;;;;;;6250689;22;20012;-66
2022/04/26 14:10:08;;;;;;;4.43;2.33;;;18.00;94.90;;;;;;6304526;22;20421;-66
2022/04/26 14:12:36;;;;;;;5.38;2.13;;;18.00;95.00;;;;;;6276801;22;20061;-66
2022/04/26 14:23:20;;;;;;;5.60;1.60;;;17.90;95.00;;;;;;6304970;22;20014;-67
2022/04/26 14:25:47;;;;;;;5.22;2.00;;;17.90;95.00;;;;;;6303435;22;20008;-67
2022/04/26 14:28:14;;;;;;;4.63;1.90;;;17.90;95.00;;;;;;6304551;22;20078;-67
2022/04/26 14:30:41;;;;;;;4.10;1.65;;;17.90;95.00;;;;;;6303803;22;19999;-67
2022/04/26 14:33:08;;;;;;;3.25;1.83;;;17.90;95.00;;;;;;6303954;22;20026;-67
2022/04/26 14:35:36;;;;;;;7.95;2.20;;;17.90;95.00;;;;;;6276086;22;20007;-67
2022/04/26 14:38:04;;;;;;;3.83;1.55;;;17.90;95.00;;;;;;6303818;22;19999;-67
2022/04/26 14:40:32;;;;;;;7.60;2.25;;;17.90;95.00;;;;;;6302800;22;20081;-67
2022/04/26 14:42:59;;;;;;;7.50;2.05;;;17.90;94.90;;;;;;6304654;22;19995;-67
2022/04/26 14:45:32;;;;;;;5.72;2.00;;;17.90;94.90;;;;;;6303852;22;20004;-67
2022/04/26 14:48:02;;;;;;;6.63;2.05;;;17.90;94.90;;;;;;6277635;22;20003;-67
2022/04/26 14:50:30;;;;;;;8.35;1.80;;;17.90;94.90;;;;;;6303820;22;20013;-65
2022/04/26 14:52:57;;;;;;;4.95;2.15;;;17.90;94.90;;;;;;6276524;22;20023;-65
2022/04/26 14:55:24;;;;;;;4.03;2.15;;;17.90;94.80;;;;;;6303736;22;20007;-65
2022/04/26 14:57:53;;;;;;;9.15;2.22;;;17.90;94.80;;;;;;6302961;22;20003;-65
2022/04/26 15:00:20;;;;;;;4.90;2.20;;;17.90;94.80;;;;;;6304287;22;20069;-65
2022/04/26 15:02:47;;;;;;;5.65;2.15;;;17.90;94.90;;;;;;6276790;22;20648;-65
2022/04/26 15:05:14;;;;;;;7.85;2.38;;;17.90;94.90;;;;;;6304369;22;20006;-65
2022/04/26 15:10:27;;;;;;;6.45;2.17;;;17.90;94.90;;;;;;6303241;22;20022;-65
2022/04/26 15:18:24;;;;;;;6.85;2.92;;;17.80;94.90;;;;;;6303628;22;20029;-67
2022/04/26 15:20:52;;;;;;;4.95;2.67;;;17.80;94.80;;;;;;6303328;22;20434;-65
2022/04/26 15:23:20;;;;;;;6.90;2.25;;;17.80;94.90;;;;;;6304141;22;20308;-65
2022/04/26 15:25:55;;;;;;;4.95;2.58;;;17.80;94.90;;;;;;6276174;22;20003;-65
2022/04/26 15:28:23;;;;;;;7.45;2.67;;;17.80;94.80;;;;;;6303742;22;20003;-65
2022/04/26 15:30:50;;;;;;;6.47;2.50;;;17.70;94.90;;;;;;6302918;22;20121;-65
2022/04/26 15:33:18;;;;;;;5.80;2.92;;;17.70;94.90;;;;;;6276603;22;20022;-65
2022/04/26 15:35:46;;;;;;;6.25;2.75;;;17.80;94.90;;;;;;6277023;22;19999;-67
2022/04/26 15:38:13;;;;;;;7.13;2.75;;;17.70;94.90;;;;;;6276754;22;19999;-67
2022/04/26 15:40:41;;;;;;;6.55;3.13;;;17.70;94.90;;;;;;6302607;22;20011;-67
2022/04/26 15:43:08;;;;;;;5.47;2.70;;;17.70;94.80;;;;;;6304677;22;20084;-67
2022/04/26 15:45:36;;;;;;;8.10;3.35;;;17.70;94.90;;;;;;6305630;22;20369;-67
2022/04/26 15:48:04;;;;;;;6.85;2.80;;;17.70;94.90;;;;;;6278937;22;20027;-66
2022/04/26 15:50:31;;;;;;;7.40;2.80;;;17.70;94.80;;;;;;6305657;22;20338;-67
2022/04/26 15:52:59;;;;;;;9.02;2.90;;;17.60;94.90;;;;;;6305140;22;20086;-66
2022/04/26 15:55:26;;;;;;;6.78;3.25;;;17.60;95.00;;;;;;6278712;22;20010;-66
2022/04/26 15:57:54;;;;;;;8.50;3.08;;;17.70;95.10;;;;;;6305644;22;20034;-66
2022/04/26 16:00:22;;;;;;;6.82;2.50;;;17.70;95.10;;;;;;6278451;22;20007;-67
2022/04/26 16:02:51;;;;;;;6.22;3.13;;;17.70;95.00;;;;;;6305016;22;20034;-67
2022/04/26 16:05:19;;;;;;;7.03;2.80;;;17.70;95.10;;;;;;6278242;22;20039;-67
2022/04/26 16:07:46;;;;;;;8.82;3.47;;;17.70;95.00;;;;;;6305409;22;20346;-67
2022/04/26 16:21:14;;;;;;;6.65;3.65;;;17.60;95.00;;;;;;6305123;22;20512;-67
2022/04/26 16:23:41;;;;;;;8.20;3.20;;;17.70;95.00;;;;;;6278875;22;20398;-67
2022/04/26 16:26:11;;;;;;;7.25;3.45;;;17.60;95.00;;;;;;6304730;22;20431;-65
2022/04/26 16:28:38;;;;;;;7.95;3.15;;;17.60;95.00;;;;;;6304463;22;20053;-65
2022/04/26 16:31:06;;;;;;;13.20;3.85;;;17.60;95.00;;;;;;6276408;22;20004;-65
2022/04/26 16:33:33;;;;;;;9.20;3.40;;;17.60;94.90;;;;;;6278908;22;20069;-67
2022/04/26 16:36:00;;;;;;;10.27;3.70;;;17.60;94.90;;;;;;6305326;22;20075;-67
2022/04/26 16:38:27;;;;;;;10.43;3.33;;;17.60;94.90;;;;;;6276829;22;20399;-67
2022/04/26 16:40:56;;;;;;;6.88;3.55;;;17.60;94.90;;;;;;6304024;22;19999;-67
2022/04/26 16:43:24;;;;;;;7.07;3.15;;;17.60;94.90;;;;;;6304097;22;19995;-67
2022/04/26 16:45:51;;;;;;;6.78;3.33;;;17.60;94.90;;;;;;6304566;22;20074;-67
2022/04/26 16:48:18;;;;;;;5.72;3.30;;;17.60;94.90;;;;;;6304955;22;20430;-67
2022/04/26 16:50:46;;;;;;;8.48;3.40;;;17.60;94.90;;;;;;6304770;22;20014;-67
2022/04/26 16:53:13;;;;;;;7.22;3.00;;;17.60;94.90;;;;;;6304441;22;20045;-67
2022/04/26 16:55:40;;;;;;;5.82;3.25;;;17.50;94.80;;;;;;6304554;22;20007;-67
2022/04/26 16:58:08;;;;;;;10.63;3.40;;;17.60;94.90;;;;;;6305572;22;19999;-67
2022/04/26 17:00:35;;;;;;;8.65;3.25;;;17.50;95.00;;;;;;6305393;22;20342;-67
2022/04/26 17:03:02;;;;;;;6.15;3.10;;;17.60;94.90;;;;;;6251558;22;20450;-67
2022/04/26 17:05:29;;;;;;;6.93;3.38;;;17.50;94.90;;;;;;6276910;22;20030;-67
2022/04/26 17:07:57;;;;;;;6.75;3.17;;;17.50;94.80;;;;;;6303770;22;20052;-67
2022/04/26 17:10:24;;;;;;;8.80;3.35;;;17.50;94.80;;;;;;6304061;22;20061;-67
2022/04/26 17:12:52;;;;;;;6.00;2.95;;;17.50;94.80;;;;;;6304749;22;20330;-67
2022/04/26 17:15:20;;;;;;;5.45;3.15;;;17.50;94.90;;;;;;6304980;22;19996;-67
2022/04/26 17:17:47;;;;;;;8.23;3.33;;;17.50;94.90;;;;;;6304479;22;20018;-67
2022/04/26 17:20:15;;;;;;;6.88;2.72;;;17.50;95.00;;;;;;6304185;22;20019;-67
2022/04/26 17:22:43;;;;;;;8.88;3.28;;;17.50;95.00;;;;;;6305567;22;20078;-67
2022/04/26 17:25:13;;;;;;;8.05;2.80;;;17.50;94.90;;;;;;6305004;22;20004;-67
2022/04/26 17:27:41;;;;;;;;;;;17.50;94.90;;;;;;6304694;22;20057;-67
2022/04/26 17:30:09;;;;;;;5.78;2.58;;;17.50;94.90;;;;;;6304200;22;19902;-67
2022/04/26 17:32:36;;;;;;;4.90;2.47;;;17.50;94.90;;;;;;6277570;22;20007;-67
2022/04/26 17:35:05;;;;;;;5.93;2.85;;;17.40;94.80;;;;;;6303851;22;20064;-67
2022/04/26 17:37:32;;;;;;;4.72;2.80;;;17.40;94.80;;;;;;6276899;22;20071;-67
2022/04/26 17:40:00;;;;;;;4.85;2.42;;;17.40;94.80;;;;;;6277178;22;20403;-67
2022/04/26 17:42:28;;;;;;;6.50;2.85;;;17.40;94.90;;;;;;6303891;22;20000;-67
2022/04/26 17:44:56;;;;;;;5.30;2.50;;;17.40;94.80;;;;;;6305046;22;19999;-67
2022/04/26 17:47:23;;;;;;;7.65;2.75;;;17.30;94.70;;;;;;6277481;22;20082;-67
2022/04/26 17:49:50;;;;;;;6.32;2.40;;;17.30;94.70;;;;;;6304413;22;20431;-67
2022/04/26 17:52:18;;;;;;;7.57;3.03;;;17.30;94.80;;;;;;6276520;22;20049;-67
2022/04/26 17:57:30;;;;;;;5.93;2.50;;;17.30;94.80;;;;;;6304238;22;20010;-67
2022/04/26 17:59:57;;;;;;;6.32;2.55;;;17.30;94.70;;;;;;6304240;22;20003;-67
2022/04/26 18:02:24;;;;;;;4.57;2.40;;;17.30;94.70;;;;;;6302802;22;20087;-67
2022/04/26 18:04:52;;;;;;;3.65;2.13;;;17.30;94.70;;;;;;6303304;22;20029;-67
2022/04/26 18:07:19;;;;;;;6.65;2.47;;;17.20;94.60;;;;;;6303168;22;20071;-67
2022/04/26 18:09:46;;;;;;;5.53;2.42;;;17.30;94.70;;;;;;6304754;22;20021;-67
2022/04/26 18:12:14;;;;;;;6.88;2.70;;;17.20;94.70;;;;;;6278299;22;20007;-67
2022/04/26 18:14:42;;;;;;;6.93;2.42;;;17.30;94.60;;;;;;6303863;22;20070;-67
2022/04/26 18:17:09;;;;;;;8.40;2.70;;;17.20;94.60;;;;;;6303620;22;19999;-67
2022/04/26 18:37:45;;;;;;;7.80;2.50;;;17.20;94.90;;;;;;6332927;22;20334;-71
2022/04/26 18:40:13;;;;;;;6.63;2.55;;;17.20;94.90;;;;;;6334264;22;20006;-71
2022/04/26 18:42:41;;;;;;;5.25;2.40;;;17.20;94.90;;;;;;6334609;22;20026;-72
2022/04/26 18:45:08;;;;;;;4.45;2.50;;;17.30;95.00;;;;;;6334769;22;20079;-72
2022/04/26 18:47:36;;;;;;;4.85;2.42;;;17.30;95.00;;;;;;6335214;22;20414;-72
2022/04/26 18:50:03;;;;;;;5.85;2.90;;;17.30;95.10;;;;;;6334632;22;20034;-72
2022/04/26 18:52:31;;;;;;;7.15;2.85;;;17.30;95.00;;;;;;6335585;22;20040;-72
2022/04/26 18:54:58;;;;;;;4.90;2.60;;;17.30;95.00;;;;;;6331389;22;20014;-72
2022/04/26 18:57:25;;;;;;;7.18;2.67;;;17.30;95.00;;;;;;6334131;22;20078;-72
2022/04/26 18:59:52;;;;;;;6.50;2.63;;;17.30;95.00;;;;;;6334399;22;20013;-72
2022/04/26 19:02:20;;;;;;;4.88;2.67;;;17.30;95.00;;;;;;6306199;22;20006;-72
2022/04/26 19:04:47;;;;;;;8.40;2.83;;;17.30;95.10;;;;;;6333522;22;20005;-72
2022/04/26 19:07:14;;;;;;;3.80;2.60;;;17.30;95.00;;;;;;6334715;22;20003;-72
2022/04/26 19:12:28;;;;;;;5.55;2.78;;;17.30;95.10;;;;;;6271168;22;20003;-72
2022/04/26 19:14:55;;;;;;;4.43;2.63;;;17.30;95.10;;;;;;6307724;22;20015;-72
2022/04/26 19:17:23;;;;;;;5.50;2.50;;;17.30;95.10;;;;;;6336994;22;20010;-72
2022/04/26 19:19:50;;;;;;;6.88;2.85;;;17.30;95.10;;;;;;6310674;22;20003;-73
2022/04/26 19:22:17;;;;;;;6.88;2.50;;;17.30;95.10;;;;;;6338624;22;20003;-72
2022/04/26 19:24:44;;;;;;;4.55;2.47;;;17.30;95.00;;;;;;6338743;22;20433;-72
2022/04/26 19:27:11;;;;;;;7.05;2.40;;;17.20;95.00;;;;;;6338202;22;20078;-73
2022/04/26 19:29:38;;;;;;;5.93;2.30;;;17.30;94.90;;;;;;6338381;22;20437;-72
2022/04/26 19:32:06;;;;;;;8.60;2.50;;;17.20;94.80;;;;;;6311321;22;20003;-73